sensor_id;sensor_type;location;lat;lon;timestamp;pressure;altitude;pressure_sealevel;temperature;humidity
54882;BME280;40775;51.448;4.742;2024-01-30T00:01:09;102595.25;;;8.36;100.00
54882;BME280;40775;51.448;4.742;2024-01-30T00:03:36;102588.31;;;8.37;100.00
54882;BME280;40775;51.448;4.742;2024-01-30T00:06:04;102586.75;;;8.41;100.00
54882;BME280;40775;51.448;4.742;2024-01-30T00:08:31;102586.84;;;8.42;100.00
54882;BME280;40775;51.448;4.742;2024-01-30T00:10:58;102582.50;;;8.43;100.00
54882;BME280;40775;51.448;4.742;2024-01-30T00:13:25;102582.78;;;8.47;100.00
54882;BME280;40775;51.448;4.742;2024-01-30T00:15:52;102588.09;;;8.49;100.00
54882;BME280;40775;51.448;4.742;2024-01-30T00:18:19;102581.69;;;8.44;100.00
54882;BME280;40775;51.448;4.742;2024-01-30T00:20:46;102575.56;;;8.43;100.00
54882;BME280;40775;51.448;4.742;2024-01-30T00:23:13;102576.47;;;8.44;100.00
54882;BME280;40775;51.448;4.742;2024-01-30T00:25:40;102573.84;;;8.44;100.00
54882;BME280;40775;51.448;4.742;2024-01-30T00:28:07;102575.56;;;8.43;100.00
54882;BME280;40775;51.448;4.742;2024-01-30T00:30:34;102579.81;;;8.41;100.00
54882;BME280;40775;51.448;4.742;2024-01-30T00:33:01;102564.19;;;8.43;100.00
54882;BME280;40775;51.448;4.742;2024-01-30T00:35:29;102569.44;;;8.43;100.00
54882;BME280;40775;51.448;4.742;2024-01-30T00:37:56;102565.81;;;8.41;100.00
54882;BME280;40775;51.448;4.742;2024-01-30T00:40:24;102562.41;;;8.42;100.00
54882;BME280;40775;51.448;4.742;2024-01-30T00:42:51;102564.03;;;8.40;100.00
54882;BME280;40775;51.448;4.742;2024-01-30T00:45:19;102558.63;;;8.36;100.00
54882;BME280;40775;51.448;4.742;2024-01-30T00:47:46;102564.19;;;8.43;100.00
54882;BME280;40775;51.448;4.742;2024-01-30T00:50:13;102561.56;;;8.43;100.00
54882;BME280;40775;51.448;4.742;2024-01-30T00:52:40;102560.75;;;8.44;100.00
54882;BME280;40775;51.448;4.742;2024-01-30T00:55:08;102567.63;;;8.42;100.00
54882;BME280;40775;51.448;4.742;2024-01-30T00:57:35;102561.41;;;8.40;100.00
54882;BME280;40775;51.448;4.742;2024-01-30T01:00:03;102559.53;;;8.37;100.00
54882;BME280;40775;51.448;4.742;2024-01-30T01:02:33;102556.63;;;8.32;100.00
54882;BME280;40775;51.448;4.742;2024-01-30T01:05:01;102556.72;;;8.34;100.00
54882;BME280;40775;51.448;4.742;2024-01-30T01:07:28;102557.00;;;8.39;100.00
54882;BME280;40775;51.448;4.742;2024-01-30T01:09:56;102555.91;;;8.35;100.00
54882;BME280;40775;51.448;4.742;2024-01-30T01:12:23;102553.31;;;8.35;100.00
54882;BME280;40775;51.448;4.742;2024-01-30T01:14:50;102556.00;;;8.36;100.00
54882;BME280;40775;51.448;4.742;2024-01-30T01:17:17;102551.38;;;8.32;100.00
54882;BME280;40775;51.448;4.742;2024-01-30T01:19:45;102546.97;;;8.31;100.00
54882;BME280;40775;51.448;4.742;2024-01-30T01:22:12;102543.38;;;8.29;100.00
54882;BME280;40775;51.448;4.742;2024-01-30T01:24:39;102538.13;;;8.29;100.00
54882;BME280;40775;51.448;4.742;2024-01-30T01:27:06;102533.47;;;8.24;100.00
54882;BME280;40775;51.448;4.742;2024-01-30T01:29:33;102532.47;;;8.22;100.00
54882;BME280;40775;51.448;4.742;2024-01-30T01:32:00;102536.06;;;8.24;100.00
54882;BME280;40775;51.448;4.742;2024-01-30T01:34:27;102534.97;;;8.20;100.00
54882;BME280;40775;51.448;4.742;2024-01-30T01:36:57;102542.66;;;8.17;100.00
54882;BME280;40775;51.448;4.742;2024-01-30T01:39:24;102544.44;;;8.18;100.00
54882;BME280;40775;51.448;4.742;2024-01-30T01:41:51;102545.25;;;8.17;100.00
54882;BME280;40775;51.448;4.742;2024-01-30T01:44:18;102545.19;;;8.16;100.00
54882;BME280;40775;51.448;4.742;2024-01-30T01:46:46;102542.56;;;8.16;100.00
54882;BME280;40775;51.448;4.742;2024-01-30T01:49:18;102543.63;;;8.19;100.00
54882;BME280;40775;51.448;4.742;2024-01-30T01:51:47;102539.84;;;8.14;100.00
54882;BME280;40775;51.448;4.742;2024-01-30T01:54:15;102537.81;;;8.09;100.00
54882;BME280;40775;51.448;4.742;2024-01-30T01:56:43;102541.13;;;8.06;100.00
54882;BME280;40775;51.448;4.742;2024-01-30T01:59:10;102536.81;;;8.06;100.00
54882;BME280;40775;51.448;4.742;2024-01-30T02:01:38;102534.84;;;8.02;100.00
54882;BME280;40775;51.448;4.742;2024-01-30T02:04:06;102539.69;;;8.11;100.00
54882;BME280;40775;51.448;4.742;2024-01-30T02:06:34;102543.03;;;8.09;100.00
54882;BME280;40775;51.448;4.742;2024-01-30T02:09:02;102544.91;;;8.11;100.00
54882;BME280;40775;51.448;4.742;2024-01-30T02:11:29;102539.69;;;8.11;100.00
54882;BME280;40775;51.448;4.742;2024-01-30T02:13:56;102530.75;;;8.07;100.00
54882;BME280;40775;51.448;4.742;2024-01-30T02:16:23;102526.44;;;8.08;100.00
54882;BME280;40775;51.448;4.742;2024-01-30T02:18:50;102522.28;;;8.12;100.00
54882;BME280;40775;51.448;4.742;2024-01-30T02:21:18;102525.63;;;8.09;100.00
54882;BME280;40775;51.448;4.742;2024-01-30T02:23:47;102516.44;;;8.01;100.00
54882;BME280;40775;51.448;4.742;2024-01-30T02:26:15;102524.38;;;8.02;100.00
54882;BME280;40775;51.448;4.742;2024-01-30T02:28:42;102514.81;;;8.03;100.00
54882;BME280;40775;51.448;4.742;2024-01-30T02:31:09;102514.00;;;8.04;100.00
54882;BME280;40775;51.448;4.742;2024-01-30T02:33:36;102509.59;;;8.03;100.00
54882;BME280;40775;51.448;4.742;2024-01-30T02:36:04;102506.97;;;8.03;100.00
54882;BME280;40775;51.448;4.742;2024-01-30T02:38:31;102509.75;;;7.91;100.00
54882;BME280;40775;51.448;4.742;2024-01-30T02:40:58;102510.88;;;7.95;100.00
54882;BME280;40775;51.448;4.742;2024-01-30T02:43:25;102510.88;;;7.95;100.00
54882;BME280;40775;51.448;4.742;2024-01-30T02:45:52;102503.38;;;8.01;100.00
54882;BME280;40775;51.448;4.742;2024-01-30T02:48:19;102498.31;;;8.04;100.00
54882;BME280;40775;51.448;4.742;2024-01-30T02:50:46;102502.56;;;8.02;100.00
54882;BME280;40775;51.448;4.742;2024-01-30T02:53:13;102506.59;;;8.12;100.00
54882;BME280;40775;51.448;4.742;2024-01-30T02:55:40;102505.69;;;8.11;100.00
54882;BME280;40775;51.448;4.742;2024-01-30T02:58:07;102509.28;;;8.13;100.00
54882;BME280;40775;51.448;4.742;2024-01-30T03:00:35;102503.78;;;8.23;100.00
54882;BME280;40775;51.448;4.742;2024-01-30T03:03:02;102511.72;;;8.25;100.00
54882;BME280;40775;51.448;4.742;2024-01-30T03:05:29;102511.97;;;8.29;100.00
54882;BME280;40775;51.448;4.742;2024-01-30T03:07:56;102501.50;;;8.29;100.00
54882;BME280;40775;51.448;4.742;2024-01-30T03:10:24;102513.03;;;8.33;100.00
54882;BME280;40775;51.448;4.742;2024-01-30T03:12:51;102505.19;;;8.33;100.00
54882;BME280;40775;51.448;4.742;2024-01-30T03:15:18;102512.41;;;8.37;100.00
54882;BME280;40775;51.448;4.742;2024-01-30T03:17:45;102511.53;;;8.36;100.00
54882;BME280;40775;51.448;4.742;2024-01-30T03:20:12;102521.25;;;8.39;100.00
54882;BME280;40775;51.448;4.742;2024-01-30T03:22:39;102525.59;;;8.39;100.00
54882;BME280;40775;51.448;4.742;2024-01-30T03:25:07;102519.53;;;8.40;100.00
54882;BME280;40775;51.448;4.742;2024-01-30T03:27:34;102512.34;;;8.35;100.00
54882;BME280;40775;51.448;4.742;2024-01-30T03:30:01;102511.53;;;8.36;100.00
54882;BME280;40775;51.448;4.742;2024-01-30T03:32:28;102513.41;;;8.39;100.00
54882;BME280;40775;51.448;4.742;2024-01-30T03:34:55;102504.66;;;8.39;100.00
54882;BME280;40775;51.448;4.742;2024-01-30T03:37:22;102507.25;;;8.39;100.00
54882;BME280;40775;51.448;4.742;2024-01-30T03:39:50;102487.97;;;8.36;100.00
54882;BME280;40775;51.448;4.742;2024-01-30T03:42:17;102493.19;;;8.36;100.00
54882;BME280;40775;51.448;4.742;2024-01-30T03:44:44;102490.66;;;8.38;100.00
54882;BME280;40775;51.448;4.742;2024-01-30T03:47:11;102492.53;;;8.41;100.00
54882;BME280;40775;51.448;4.742;2024-01-30T03:49:38;102497.13;;;8.45;100.00
54882;BME280;40775;51.448;4.742;2024-01-30T03:52:05;102492.63;;;8.42;100.00
54882;BME280;40775;51.448;4.742;2024-01-30T03:54:32;102496.69;;;8.52;100.00
54882;BME280;40775;51.448;4.742;2024-01-30T03:56:59;102496.69;;;8.52;100.00
54882;BME280;40775;51.448;4.742;2024-01-30T03:59:26;102494.06;;;8.52;100.00
54882;BME280;40775;51.448;4.742;2024-01-30T04:01:54;102501.19;;;8.54;100.00
54882;BME280;40775;51.448;4.742;2024-01-30T04:04:21;102503.16;;;8.58;100.00
54882;BME280;40775;51.448;4.742;2024-01-30T04:06:49;102495.28;;;8.58;100.00
54882;BME280;40775;51.448;4.742;2024-01-30T04:09:16;102488.16;;;8.56;100.00
54882;BME280;40775;51.448;4.742;2024-01-30T04:11:43;102488.34;;;8.59;100.00
54882;BME280;40775;51.448;4.742;2024-01-30T04:14:10;102492.75;;;8.60;100.00
54882;BME280;40775;51.448;4.742;2024-01-30T04:16:37;102484.00;;;8.59;100.00
54882;BME280;40775;51.448;4.742;2024-01-30T04:19:04;102487.28;;;8.55;100.00
54882;BME280;40775;51.448;4.742;2024-01-30T04:21:31;102474.19;;;8.55;100.00
54882;BME280;40775;51.448;4.742;2024-01-30T04:23:58;102476.00;;;8.56;100.00
54882;BME280;40775;51.448;4.742;2024-01-30T04:26:25;102468.88;;;8.54;100.00
54882;BME280;40775;51.448;4.742;2024-01-30T04:28:52;102475.66;;;8.50;100.00
54882;BME280;40775;51.448;4.742;2024-01-30T04:31:19;102471.31;;;8.51;100.00
54882;BME280;40775;51.448;4.742;2024-01-30T04:33:47;102474.03;;;8.52;100.00
54882;BME280;40775;51.448;4.742;2024-01-30T04:36:14;102472.13;;;8.50;100.00
54882;BME280;40775;51.448;4.742;2024-01-30T04:38:41;102479.09;;;8.49;100.00
54882;BME280;40775;51.448;4.742;2024-01-30T04:41:08;102478.28;;;8.50;100.00
54882;BME280;40775;51.448;4.742;2024-01-30T04:43:35;102483.75;;;8.55;100.00
54882;BME280;40775;51.448;4.742;2024-01-30T04:46:03;102494.47;;;8.59;100.00
54882;BME280;40775;51.448;4.742;2024-01-30T04:48:30;102490.13;;;8.60;100.00
54882;BME280;40775;51.448;4.742;2024-01-30T04:50:58;102487.59;;;8.61;100.00
54882;BME280;40775;51.448;4.742;2024-01-30T04:53:25;102475.41;;;8.62;100.00
54882;BME280;40775;51.448;4.742;2024-01-30T04:55:52;102479.00;;;8.64;100.00
54882;BME280;40775;51.448;4.742;2024-01-30T04:58:19;102480.97;;;8.68;100.00
54882;BME280;40775;51.448;4.742;2024-01-30T05:00:46;102492.09;;;8.64;100.00
54882;BME280;40775;51.448;4.742;2024-01-30T05:03:19;102481.72;;;8.65;100.00
54882;BME280;40775;51.448;4.742;2024-01-30T05:05:47;102478.34;;;8.68;100.00
54882;BME280;40775;51.448;4.742;2024-01-30T05:08:14;102471.31;;;8.67;100.00
54882;BME280;40775;51.448;4.742;2024-01-30T05:10:41;102472.22;;;8.67;100.00
54882;BME280;40775;51.448;4.742;2024-01-30T05:13:08;102467.13;;;8.71;100.00
54882;BME280;40775;51.448;4.742;2024-01-30T05:15:35;102467.97;;;8.70;100.00
54882;BME280;40775;51.448;4.742;2024-01-30T05:18:02;102472.53;;;8.74;100.00
54882;BME280;40775;51.448;4.742;2024-01-30T05:20:30;102465.50;;;8.73;100.00
54882;BME280;40775;51.448;4.742;2024-01-30T05:22:57;102462.97;;;8.74;100.00
54882;BME280;40775;51.448;4.742;2024-01-30T05:25:24;102458.53;;;8.73;100.00
54882;BME280;40775;51.448;4.742;2024-01-30T05:27:51;102457.56;;;8.71;100.00
54882;BME280;40775;51.448;4.742;2024-01-30T05:30:18;102466.56;;;8.76;100.00
54882;BME280;40775;51.448;4.742;2024-01-30T05:32:46;102461.31;;;8.76;100.00
54882;BME280;40775;51.448;4.742;2024-01-30T05:35:13;102464.13;;;8.79;100.00
54882;BME280;40775;51.448;4.742;2024-01-30T05:37:40;102460.63;;;8.79;100.00
54882;BME280;40775;51.448;4.742;2024-01-30T05:40:08;102468.56;;;8.80;100.00
54882;BME280;40775;51.448;4.742;2024-01-30T05:42:35;102472.16;;;8.82;100.00
54882;BME280;40775;51.448;4.742;2024-01-30T05:45:02;102471.19;;;8.80;100.00
54882;BME280;40775;51.448;4.742;2024-01-30T05:47:30;102477.56;;;8.85;100.00
54882;BME280;40775;51.448;4.742;2024-01-30T05:49:57;102465.19;;;8.83;100.00
54882;BME280;40775;51.448;4.742;2024-01-30T05:52:24;102473.06;;;8.83;100.00
54882;BME280;40775;51.448;4.742;2024-01-30T05:54:52;102479.34;;;8.86;100.00
54882;BME280;40775;51.448;4.742;2024-01-30T05:57:19;102477.72;;;8.88;100.00
54882;BME280;40775;51.448;4.742;2024-01-30T05:59:46;102484.75;;;8.89;100.00
54882;BME280;40775;51.448;4.742;2024-01-30T06:02:14;102489.09;;;8.89;100.00
54882;BME280;40775;51.448;4.742;2024-01-30T06:04:41;102479.66;;;8.92;100.00
54882;BME280;40775;51.448;4.742;2024-01-30T06:07:09;102483.28;;;8.94;100.00
54882;BME280;40775;51.448;4.742;2024-01-30T06:09:36;102482.53;;;8.97;100.00
54882;BME280;40775;51.448;4.742;2024-01-30T06:12:04;102500.19;;;9.01;100.00
54882;BME280;40775;51.448;4.742;2024-01-30T06:14:32;102495.03;;;9.03;100.00
54882;BME280;40775;51.448;4.742;2024-01-30T06:17:00;102494.22;;;9.04;100.00
54882;BME280;40775;51.448;4.742;2024-01-30T06:19:27;102497.78;;;9.04;100.00
54882;BME280;40775;51.448;4.742;2024-01-30T06:21:54;102502.28;;;9.07;100.00
54882;BME280;40775;51.448;4.742;2024-01-30T06:24:21;102501.53;;;9.09;100.00
54882;BME280;40775;51.448;4.742;2024-01-30T06:26:48;102507.75;;;9.11;100.00
54882;BME280;40775;51.448;4.742;2024-01-30T06:29:16;102510.44;;;9.13;100.00
54882;BME280;40775;51.448;4.742;2024-01-30T06:31:46;102518.38;;;9.14;100.00
54882;BME280;40775;51.448;4.742;2024-01-30T06:34:13;102522.97;;;9.18;100.00
54882;BME280;40775;51.448;4.742;2024-01-30T06:36:41;102524.69;;;9.18;100.00
54882;BME280;40775;51.448;4.742;2024-01-30T06:39:08;102534.44;;;9.20;100.00
54882;BME280;40775;51.448;4.742;2024-01-30T06:41:35;102535.50;;;9.24;100.00
54882;BME280;40775;51.448;4.742;2024-01-30T06:44:03;102528.44;;;9.23;100.00
54882;BME280;40775;51.448;4.742;2024-01-30T06:46:32;102547.09;;;10.49;100.00
54882;BME280;40775;51.448;4.742;2024-01-30T06:48:59;102548.81;;;11.43;100.00
54882;BME280;40775;51.448;4.742;2024-01-30T06:51:26;102545.25;;;12.02;100.00
54882;BME280;40775;51.448;4.742;2024-01-30T06:53:54;102539.13;;;12.45;100.00
54882;BME280;40775;51.448;4.742;2024-01-30T06:56:21;102516.59;;;12.76;100.00
54882;BME280;40775;51.448;4.742;2024-01-30T06:58:49;102521.88;;;12.99;100.00
54882;BME280;40775;51.448;4.742;2024-01-30T07:01:16;102519.09;;;13.17;100.00
54882;BME280;40775;51.448;4.742;2024-01-30T07:03:43;102513.41;;;13.30;100.00
54882;BME280;40775;51.448;4.742;2024-01-30T07:06:11;102508.31;;;13.37;100.00
54882;BME280;40775;51.448;4.742;2024-01-30T07:08:39;102510.38;;;13.44;100.00
54882;BME280;40775;51.448;4.742;2024-01-30T07:11:06;102511.47;;;13.50;100.00
54882;BME280;40775;51.448;4.742;2024-01-30T07:13:35;102502.81;;;13.54;100.00
54882;BME280;40775;51.448;4.742;2024-01-30T07:16:03;102502.16;;;13.61;100.00
54882;BME280;40775;51.448;4.742;2024-01-30T07:18:30;102507.59;;;13.66;100.00
54882;BME280;40775;51.448;4.742;2024-01-30T07:21:02;102504.25;;;13.70;100.00
54882;BME280;40775;51.448;4.742;2024-01-30T07:23:29;102500.88;;;13.74;100.00
54882;BME280;40775;51.448;4.742;2024-01-30T07:25:56;102517.53;;;13.73;100.00
54882;BME280;40775;51.448;4.742;2024-01-30T07:28:24;102515.94;;;13.78;100.00
54882;BME280;40775;51.448;4.742;2024-01-30T07:30:54;102522.28;;;13.83;100.00
54882;BME280;40775;51.448;4.742;2024-01-30T07:33:21;102517.09;;;13.86;100.00
54882;BME280;40775;51.448;4.742;2024-01-30T07:35:48;102525.06;;;13.88;100.00
54882;BME280;40775;51.448;4.742;2024-01-30T07:38:15;102525.22;;;13.92;100.00
54882;BME280;40775;51.448;4.742;2024-01-30T07:40:42;102522.47;;;13.89;100.00
54882;BME280;40775;51.448;4.742;2024-01-30T07:43:10;102522.44;;;13.88;100.00
54882;BME280;40775;51.448;4.742;2024-01-30T07:45:37;102507.53;;;13.90;100.00
54882;BME280;40775;51.448;4.742;2024-01-30T07:48:06;102510.31;;;13.95;100.00
54882;BME280;40775;51.448;4.742;2024-01-30T07:50:33;102516.53;;;13.97;100.00
54882;BME280;40775;51.448;4.742;2024-01-30T07:53:00;102512.25;;;13.99;100.00
54882;BME280;40775;51.448;4.742;2024-01-30T07:55:28;102519.31;;;14.00;100.00
54882;BME280;40775;51.448;4.742;2024-01-30T07:57:55;102516.69;;;14.00;100.00
54882;BME280;40775;51.448;4.742;2024-01-30T08:00:23;102513.19;;;14.01;100.00
54882;BME280;40775;51.448;4.742;2024-01-30T08:02:50;102518.56;;;14.04;100.00
54882;BME280;40775;51.448;4.742;2024-01-30T08:05:17;102515.88;;;14.02;100.00
54882;BME280;40775;51.448;4.742;2024-01-30T08:07:44;102515.84;;;14.01;100.00
54882;BME280;40775;51.448;4.742;2024-01-30T08:10:13;102514.22;;;14.06;100.00
54882;BME280;40775;51.448;4.742;2024-01-30T08:12:40;102506.31;;;14.06;100.00
54882;BME280;40775;51.448;4.742;2024-01-30T08:15:08;102514.31;;;14.09;100.00
54882;BME280;40775;51.448;4.742;2024-01-30T08:17:35;102517.91;;;14.11;100.00
54882;BME280;40775;51.448;4.742;2024-01-30T08:20:03;102513.53;;;14.11;100.00
54882;BME280;40775;51.448;4.742;2024-01-30T08:22:31;102512.72;;;14.14;100.00
54882;BME280;40775;51.448;4.742;2024-01-30T08:24:59;102510.13;;;14.15;100.00
54882;BME280;40775;51.448;4.742;2024-01-30T08:27:26;102519.81;;;14.15;100.00
54882;BME280;40775;51.448;4.742;2024-01-30T08:29:53;102518.06;;;14.15;100.00
54882;BME280;40775;51.448;4.742;2024-01-30T08:32:20;102528.78;;;14.20;100.00
54882;BME280;40775;51.448;4.742;2024-01-30T08:34:47;102528.72;;;14.18;100.00
54882;BME280;40775;51.448;4.742;2024-01-30T08:37:14;102528.78;;;14.20;100.00
54882;BME280;40775;51.448;4.742;2024-01-30T08:39:44;102528.88;;;14.23;100.00
54882;BME280;40775;51.448;4.742;2024-01-30T08:42:11;102535.13;;;14.25;100.00
54882;BME280;40775;51.448;4.742;2024-01-30T08:44:38;102532.53;;;14.27;100.00
54882;BME280;40775;51.448;4.742;2024-01-30T08:47:06;102533.47;;;14.29;100.00
54882;BME280;40775;51.448;4.742;2024-01-30T08:49:34;102537.91;;;14.30;100.00
54882;BME280;40775;51.448;4.742;2024-01-30T08:52:01;102541.44;;;14.30;100.00
54882;BME280;40775;51.448;4.742;2024-01-30T08:54:28;102532.56;;;14.28;100.00
54882;BME280;40775;51.448;4.742;2024-01-30T08:56:55;102540.66;;;14.33;100.00
54882;BME280;40775;51.448;4.742;2024-01-30T08:59:23;102547.72;;;14.34;100.00
54882;BME280;40775;51.448;4.742;2024-01-30T09:01:50;102547.72;;;14.34;100.00
54882;BME280;40775;51.448;4.742;2024-01-30T09:04:32;102540.66;;;14.33;100.00
54882;BME280;40775;51.448;4.742;2024-01-30T09:07:00;102548.63;;;14.34;100.00
54882;BME280;40775;51.448;4.742;2024-01-30T09:09:27;102545.13;;;14.35;100.00
54882;BME280;40775;51.448;4.742;2024-01-30T09:11:54;102557.50;;;14.36;100.00
54882;BME280;40775;51.448;4.742;2024-01-30T09:14:21;102561.97;;;14.39;100.00
54882;BME280;40775;51.448;4.742;2024-01-30T09:16:48;102560.19;;;14.38;100.00
54882;BME280;40775;51.448;4.742;2024-01-30T09:19:16;102560.19;;;14.38;100.00
54882;BME280;40775;51.448;4.742;2024-01-30T09:21:43;102562.88;;;14.39;100.00
54882;BME280;40775;51.448;4.742;2024-01-30T09:24:10;102569.94;;;14.40;100.00
54882;BME280;40775;51.448;4.742;2024-01-30T09:26:37;102568.09;;;14.38;100.00
54882;BME280;40775;51.448;4.742;2024-01-30T09:29:04;102568.81;;;14.32;100.00
54882;BME280;40775;51.448;4.742;2024-01-30T09:31:31;102566.16;;;14.32;100.00
54882;BME280;40775;51.448;4.742;2024-01-30T09:33:58;102580.22;;;14.31;100.00
54882;BME280;40775;51.448;4.742;2024-01-30T09:36:26;102571.56;;;14.35;100.00
54882;BME280;40775;51.448;4.742;2024-01-30T09:38:53;102565.19;;;14.29;100.00
54882;BME280;40775;51.448;4.742;2024-01-30T09:41:20;102573.91;;;14.26;100.00
54882;BME280;40775;51.448;4.742;2024-01-30T09:43:51;102579.19;;;14.26;100.00
54882;BME280;40775;51.448;4.742;2024-01-30T09:46:18;102577.50;;;14.28;100.00
54882;BME280;40775;51.448;4.742;2024-01-30T09:48:49;102595.13;;;14.29;100.00
54882;BME280;40775;51.448;4.742;2024-01-30T09:51:17;102593.38;;;14.30;100.00
54882;BME280;40775;51.448;4.742;2024-01-30T09:53:44;102587.13;;;14.26;100.00
54882;BME280;40775;51.448;4.742;2024-01-30T09:56:13;102584.34;;;14.23;100.00
54882;BME280;40775;51.448;4.742;2024-01-30T09:58:40;102584.41;;;14.25;100.00
54882;BME280;40775;51.448;4.742;2024-01-30T10:01:08;102592.50;;;14.29;100.00
54882;BME280;40775;51.448;4.742;2024-01-30T10:03:36;102607.44;;;14.29;100.00
54882;BME280;40775;51.448;4.742;2024-01-30T10:06:03;102604.06;;;14.33;100.00
54882;BME280;40775;51.448;4.742;2024-01-30T10:08:30;102596.97;;;14.32;100.00
54882;BME280;40775;51.448;4.742;2024-01-30T10:10:59;102604.94;;;14.33;100.00
54882;BME280;40775;51.448;4.742;2024-01-30T10:13:26;102607.59;;;14.33;100.00
54882;BME280;40775;51.448;4.742;2024-01-30T10:15:53;102612.13;;;14.37;100.00
54882;BME280;40775;51.448;4.742;2024-01-30T10:18:25;102611.03;;;14.31;100.00
54882;BME280;40775;51.448;4.742;2024-01-30T10:20:52;102605.69;;;14.29;100.00
54882;BME280;40775;51.448;4.742;2024-01-30T10:23:19;102617.13;;;14.28;100.00
54882;BME280;40775;51.448;4.742;2024-01-30T10:25:47;102617.91;;;14.26;100.00
54882;BME280;40775;51.448;4.742;2024-01-30T10:28:14;102613.53;;;14.26;100.00
54882;BME280;40775;51.448;4.742;2024-01-30T10:30:42;102625.09;;;14.30;100.00
54882;BME280;40775;51.448;4.742;2024-01-30T10:33:09;102624.19;;;14.29;100.00
54882;BME280;40775;51.448;4.742;2024-01-30T10:35:36;102625.09;;;14.30;100.00
54882;BME280;40775;51.448;4.742;2024-01-30T10:38:05;102620.63;;;14.27;100.00
54882;BME280;40775;51.448;4.742;2024-01-30T10:40:34;102619.88;;;14.31;100.00
54882;BME280;40775;51.448;4.742;2024-01-30T10:43:04;102634.97;;;14.35;100.00
54882;BME280;40775;51.448;4.742;2024-01-30T10:45:31;102627.88;;;14.34;100.00
54882;BME280;40775;51.448;4.742;2024-01-30T10:48:00;102631.31;;;14.32;100.00
54882;BME280;40775;51.448;4.742;2024-01-30T10:50:29;102632.16;;;14.31;100.00
54882;BME280;40775;51.448;4.742;2024-01-30T10:52:58;102629.59;;;14.32;100.00
54882;BME280;40775;51.448;4.742;2024-01-30T10:55:27;102626.88;;;14.31;100.00
54882;BME280;40775;51.448;4.742;2024-01-30T10:57:55;102632.16;;;14.31;100.00
54882;BME280;40775;51.448;4.742;2024-01-30T11:00:22;102624.09;;;14.26;100.00
54882;BME280;40775;51.448;4.742;2024-01-30T11:02:51;102638.72;;;14.16;100.00
54882;BME280;40775;51.448;4.742;2024-01-30T11:05:25;102637.81;;;14.16;100.00
54882;BME280;40775;51.448;4.742;2024-01-30T11:07:59;102642.47;;;14.23;100.00
54882;BME280;40775;51.448;4.742;2024-01-30T11:10:26;102640.81;;;14.25;100.00
54882;BME280;40775;51.448;4.742;2024-01-30T11:12:53;102627.63;;;14.27;100.00
54882;BME280;40775;51.448;4.742;2024-01-30T11:15:20;102632.97;;;14.28;100.00
54882;BME280;40775;51.448;4.742;2024-01-30T11:20:19;102640.81;;;14.25;100.00
54882;BME280;40775;51.448;4.742;2024-01-30T11:22:50;102639.81;;;14.23;100.00
54882;BME280;40775;51.448;4.742;2024-01-30T11:25:21;102637.13;;;14.21;100.00
54882;BME280;40775;51.448;4.742;2024-01-30T11:27:52;102632.88;;;14.25;100.00
54882;BME280;40775;51.448;4.742;2024-01-30T11:30:33;102632.63;;;14.19;100.00
54882;BME280;40775;51.448;4.742;2024-01-30T11:33:12;102636.31;;;14.24;100.00
54882;BME280;40775;51.448;4.742;2024-01-30T11:35:42;102639.16;;;14.29;100.00
54882;BME280;40775;51.448;4.742;2024-01-30T11:38:13;102648.81;;;14.28;100.00
54882;BME280;40775;51.448;4.742;2024-01-30T11:40:41;102649.38;;;14.19;100.00
54882;BME280;40775;51.448;4.742;2024-01-30T11:43:09;102644.69;;;14.11;100.00
54882;BME280;40775;51.448;4.742;2024-01-30T11:45:37;102647.34;;;14.11;100.00
54882;BME280;40775;51.448;4.742;2024-01-30T11:48:04;102645.59;;;14.11;100.00
54882;BME280;40775;51.448;4.742;2024-01-30T11:50:33;102656.31;;;14.16;100.00
54882;BME280;40775;51.448;4.742;2024-01-30T11:53:02;102668.03;;;14.24;100.00
54882;BME280;40775;51.448;4.742;2024-01-30T11:55:32;102668.88;;;14.23;100.00
54882;BME280;40775;51.448;4.742;2024-01-30T11:58:01;102669.97;;;14.28;100.00
54882;BME280;40775;51.448;4.742;2024-01-30T12:00:29;102668.88;;;14.23;100.00
54882;BME280;40775;51.448;4.742;2024-01-30T12:02:58;102670.91;;;14.05;100.00
54882;BME280;40775;51.448;4.742;2024-01-30T12:05:28;102682.78;;;14.17;100.00
54882;BME280;40775;51.448;4.742;2024-01-30T12:07:56;102676.94;;;14.26;100.00
54882;BME280;40775;51.448;4.742;2024-01-30T12:10:27;102675.44;;;14.34;100.00
54882;BME280;40775;51.448;4.742;2024-01-30T12:12:55;102680.69;;;14.33;100.00
54882;BME280;40775;51.448;4.742;2024-01-30T12:15:22;102686.00;;;14.34;100.00
54882;BME280;40775;51.448;4.742;2024-01-30T12:17:50;102683.31;;;14.33;100.00
54882;BME280;40775;51.448;4.742;2024-01-30T12:20:20;102677.44;;;14.41;100.00
54882;BME280;40775;51.448;4.742;2024-01-30T12:22:49;102682.06;;;14.47;100.00
54882;BME280;40775;51.448;4.742;2024-01-30T12:25:19;102683.97;;;14.51;100.00
54882;BME280;40775;51.448;4.742;2024-01-30T12:27:49;102694.53;;;14.51;100.00
54882;BME280;40775;51.448;4.742;2024-01-30T12:30:19;102697.03;;;14.46;100.00
54882;BME280;40775;51.448;4.742;2024-01-30T12:32:50;102690.00;;;14.47;100.00
54882;BME280;40775;51.448;4.742;2024-01-30T12:35:20;102705.00;;;14.48;100.00
54882;BME280;40775;51.448;4.742;2024-01-30T12:37:49;102699.72;;;14.48;100.00
54882;BME280;40775;51.448;4.742;2024-01-30T12:40:16;102704.91;;;14.45;100.00
54882;BME280;40775;51.448;4.742;2024-01-30T12:42:47;102720.56;;;14.40;100.00
54882;BME280;40775;51.448;4.742;2024-01-30T12:45:17;102709.78;;;14.34;100.00
54882;BME280;40775;51.448;4.742;2024-01-30T12:47:49;102706.34;;;14.37;100.00
54882;BME280;40775;51.448;4.742;2024-01-30T12:50:16;102718.81;;;14.41;100.00